Time,TemperatureF,DewpointF,PressureIn,WindDirection,WindDirectionDegrees,WindSpeedMPH,WindSpeedGustMPH,Humidity,HourlyPrecipIn,Conditions,Clouds,dailyrainin,SoftwareType,DateUTC
2013-03-16 00:02:00,67.7,66.2,30.01,WNW,290,0.0,0.0,95,0.00,,,0.00,Wunderground v.1.15,2013-03-15 13:02:00,
2013-03-16 00:08:00,67.7,66.2,30.01,WNW,290,0.0,0.0,95,0.00,,,0.00,Wunderground v.1.15,2013-03-15 13:08:00,
2013-03-16 00:14:00,67.8,66.3,30.01,WNW,290,0.0,0.0,95,0.00,,,0.00,Wunderground v.1.15,2013-03-15 13:14:00,
2013-03-16 00:20:00,67.7,66.2,30.01,North,-999,0.0,0.0,95,0.00,,,-99.99,WeatherLink 5.9.3,2013-03-15 13:20:00,
2013-03-16 00:27:00,67.8,66.3,30.01,WNW,290,0.0,0.0,95,0.00,,,0.00,Wunderground v.1.15,2013-03-15 13:27:00,
2013-03-16 00:33:00,67.7,66.2,30.01,WNW,290,0.0,0.0,95,0.00,,,0.00,Wunderground v.1.15,2013-03-15 13:33:00,
2013-03-16 00:38:00,67.7,66.2,30.00,WNW,290,0.0,0.0,95,0.00,,,0.00,Wunderground v.1.15,2013-03-15 13:38:00,
2013-03-16 00:43:00,67.6,66.1,30.01,WNW,290,0.0,0.0,95,0.00,,,0.00,Wunderground v.1.15,2013-03-15 13:43:00,
2013-03-16 00:49:00,67.6,66.1,30.00,WNW,290,0.0,0.0,95,0.00,,,0.00,Wunderground v.1.15,2013-03-15 13:49:00,
2013-03-16 00:55:00,67.5,66.0,30.00,WNW,290,0.0,0.0,95,0.00,,,0.00,Wunderground v.1.15,2013-03-15 13:55:00,
2013-03-16 01:00:00,67.5,66.0,30.00,North,-999,0.0,0.0,95,0.00,,,-99.99,WeatherLink 5.9.3,2013-03-15 14:00:00,
2013-03-16 01:07:00,67.5,66.0,30.00,WNW,290,0.0,0.0,95,0.00,,,0.00,Wunderground v.1.15,2013-03-15 14:07:00,
2013-03-16 01:12:00,67.6,66.1,30.01,SW,233,0.0,0.0,95,0.00,,,0.00,Wunderground v.1.15,2013-03-15 14:12:00,
2013-03-16 01:18:00,67.6,66.1,30.00,SSW,192,0.0,0.0,95,0.00,,,0.00,Wunderground v.1.15,2013-03-15 14:18:00,
2013-03-16 01:24:00,67.6,66.1,30.00,SSW,192,0.0,0.0,95,0.00,,,0.00,Wunderground v.1.15,2013-03-15 14:24:00,
2013-03-16 01:29:00,67.5,66.0,30.00,SSW,192,0.0,0.0,95,0.00,,,0.00,Wunderground v.1.15,2013-03-15 14:29:00,
2013-03-16 01:35:00,67.6,66.1,30.00,SSW,197,0.0,0.0,95,0.00,,,0.00,Wunderground v.1.15,2013-03-15 14:35:00,
2013-03-16 01:40:00,67.5,66.0,30.00,North,-999,0.0,0.0,95,0.00,,,-99.99,WeatherLink 5.9.3,2013-03-15 14:40:00,
2013-03-16 01:46:00,67.6,66.1,29.99,SSW,213,0.0,0.0,95,0.00,,,0.00,Wunderground v.1.15,2013-03-15 14:46:00,
2013-03-16 01:51:00,67.6,66.1,29.99,SSW,213,0.0,0.0,95,0.00,,,0.00,Wunderground v.1.15,2013-03-15 14:51:00,
2013-03-16 01:56:00,67.6,66.1,29.99,SSW,213,0.0,0.0,95,0.00,,,0.00,Wunderground v.1.15,2013-03-15 14:56:00,
2013-03-16 02:01:00,67.7,66.2,29.99,SSW,213,0.0,0.0,95,0.00,,,0.00,Wunderground v.1.15,2013-03-15 15:01:00,
2013-03-16 02:07:00,67.7,66.2,29.99,SSW,213,0.0,0.0,95,0.00,,,0.00,Wunderground v.1.15,2013-03-15 15:07:00,
2013-03-16 02:12:00,67.7,66.2,29.99,SSW,212,0.0,0.0,95,0.00,,,0.00,Wunderground v.1.15,2013-03-15 15:12:00,
2013-03-16 02:17:00,67.7,66.2,29.99,SSW,213,0.0,0.0,95,0.00,,,0.00,Wunderground v.1.15,2013-03-15 15:17:00,
2013-03-16 02:22:00,67.7,66.2,29.98,SSW,211,0.0,1.0,95,0.00,,,0.00,Wunderground v.1.15,2013-03-15 15:22:00,
2013-03-16 02:27:00,67.7,66.2,29.98,SSW,210,1.0,1.0,95,0.00,,,0.00,Wunderground v.1.15,2013-03-15 15:27:00,
2013-03-16 02:32:00,67.7,66.2,29.98,SSW,197,0.0,0.0,95,0.00,,,0.00,Wunderground v.1.15,2013-03-15 15:32:00,
2013-03-16 02:37:00,67.6,66.1,29.98,SSW,198,0.0,1.0,95,0.00,,,0.00,Wunderground v.1.15,2013-03-15 15:37:00,
2013-03-16 02:42:00,67.6,66.1,29.98,SSW,210,0.0,1.0,95,0.00,,,0.00,Wunderground v.1.15,2013-03-15 15:42:00,
2013-03-16 02:48:00,67.6,66.1,29.98,SSW,210,0.0,1.0,95,0.00,,,0.00,Wunderground v.1.15,2013-03-15 15:48:00,
2013-03-16 02:53:00,67.5,66.0,29.97,SW,216,0.0,1.0,95,0.00,,,0.00,Wunderground v.1.15,2013-03-15 15:53:00,
2013-03-16 02:58:00,67.4,65.9,29.97,SW,216,0.0,1.0,95,0.00,,,0.00,Wunderground v.1.15,2013-03-15 15:58:00,
2013-03-16 03:03:00,67.3,65.8,29.97,South,188,0.0,0.0,95,0.00,,,0.00,Wunderground v.1.15,2013-03-15 16:03:00,
2013-03-16 03:08:00,67.3,65.8,29.97,South,188,0.0,0.0,95,0.00,,,0.00,Wunderground v.1.15,2013-03-15 16:08:00,
2013-03-16 03:13:00,67.1,65.6,29.97,South,189,0.0,0.0,95,0.00,,,0.00,Wunderground v.1.15,2013-03-15 16:13:00,
2013-03-16 03:18:00,67.0,65.5,29.97,South,188,0.0,0.0,95,0.00,,,0.00,Wunderground v.1.15,2013-03-15 16:18:00,
2013-03-16 03:23:00,66.7,64.9,29.96,South,188,0.0,0.0,94,0.00,,,0.00,Wunderground v.1.15,2013-03-15 16:23:00,
2013-03-16 03:28:00,66.5,65.0,29.96,South,188,0.0,0.0,95,0.00,,,0.00,Wunderground v.1.15,2013-03-15 16:28:00,
2013-03-16 03:33:00,66.3,64.8,29.95,South,188,0.0,0.0,95,0.00,,,0.00,Wunderground v.1.15,2013-03-15 16:33:00,
2013-03-16 03:38:00,66.2,64.7,29.95,South,188,0.0,0.0,95,0.00,,,0.00,Wunderground v.1.15,2013-03-15 16:38:00,
2013-03-16 03:43:00,66.0,64.5,29.96,South,189,0.0,0.0,95,0.00,,,0.00,Wunderground v.1.15,2013-03-15 16:43:00,
2013-03-16 03:48:00,65.8,64.3,29.95,South,188,0.0,0.0,95,0.00,,,0.00,Wunderground v.1.15,2013-03-15 16:48:00,
2013-03-16 03:53:00,65.7,64.2,29.95,South,188,0.0,0.0,95,0.00,,,0.00,Wunderground v.1.15,2013-03-15 16:53:00,
2013-03-16 03:58:00,65.6,64.1,29.95,South,188,0.0,0.0,95,0.00,,,0.00,Wunderground v.1.15,2013-03-15 16:58:00,
2013-03-16 04:03:00,65.5,64.0,29.95,South,189,0.0,0.0,95,0.00,,,0.00,Wunderground v.1.15,2013-03-15 17:03:00,
2013-03-16 04:08:00,65.4,63.9,29.95,South,188,0.0,0.0,95,0.00,,,0.00,Wunderground v.1.15,2013-03-15 17:08:00,
2013-03-16 04:14:00,65.4,64.2,29.95,South,188,0.0,0.0,96,0.00,,,0.00,Wunderground v.1.15,2013-03-15 17:14:00,
2013-03-16 04:19:00,65.3,63.8,29.95,South,188,0.0,0.0,95,0.00,,,0.00,Wunderground v.1.15,2013-03-15 17:19:00,
2013-03-16 04:24:00,65.1,63.6,29.95,South,188,0.0,0.0,95,0.00,,,0.00,Wunderground v.1.15,2013-03-15 17:24:00,
2013-03-16 04:29:00,65.0,63.5,29.95,South,188,0.0,0.0,95,0.00,,,0.00,Wunderground v.1.15,2013-03-15 17:29:00,
2013-03-16 04:34:00,65.2,64.0,29.95,South,188,0.0,0.0,96,0.00,,,0.00,Wunderground v.1.15,2013-03-15 17:34:00,
2013-03-16 04:39:00,65.3,64.1,29.94,South,188,0.0,0.0,96,0.00,,,0.00,Wunderground v.1.15,2013-03-15 17:39:00,
2013-03-16 04:44:00,65.2,64.0,29.94,South,189,0.0,0.0,96,0.00,,,0.00,Wunderground v.1.15,2013-03-15 17:44:00,
2013-03-16 04:49:00,65.0,63.8,29.94,South,188,0.0,0.0,96,0.00,,,0.00,Wunderground v.1.15,2013-03-15 17:49:00,
2013-03-16 04:54:00,64.9,63.7,29.94,South,189,0.0,0.0,96,0.00,,,0.00,Wunderground v.1.15,2013-03-15 17:54:00,
2013-03-16 04:59:00,64.9,63.7,29.94,South,188,0.0,0.0,96,0.00,,,0.00,Wunderground v.1.15,2013-03-15 17:59:00,
2013-03-16 05:04:00,65.0,63.8,29.94,South,188,0.0,0.0,96,0.00,,,0.00,Wunderground v.1.15,2013-03-15 18:04:00,
2013-03-16 05:09:00,65.0,63.8,29.94,South,189,0.0,0.0,96,0.00,,,0.00,Wunderground v.1.15,2013-03-15 18:09:00,
2013-03-16 05:14:00,64.9,63.7,29.94,South,188,0.0,0.0,96,0.00,,,0.00,Wunderground v.1.15,2013-03-15 18:14:00,
2013-03-16 05:19:00,64.9,63.7,29.94,South,189,0.0,0.0,96,0.00,,,0.00,Wunderground v.1.15,2013-03-15 18:19:00,
2013-03-16 05:24:00,65.0,63.8,29.95,South,189,0.0,0.0,96,0.00,,,0.00,Wunderground v.1.15,2013-03-15 18:24:00,
2013-03-16 05:29:00,65.1,63.9,29.94,South,188,0.0,0.0,96,0.00,,,0.00,Wunderground v.1.15,2013-03-15 18:29:00,
2013-03-16 05:34:00,65.0,63.8,29.94,South,189,0.0,0.0,96,0.00,,,0.00,Wunderground v.1.15,2013-03-15 18:34:00,
2013-03-16 05:39:00,64.9,63.7,29.94,South,189,0.0,0.0,96,0.00,,,0.00,Wunderground v.1.15,2013-03-15 18:39:00,
2013-03-16 05:44:00,64.9,63.7,29.94,South,188,0.0,0.0,96,0.00,,,0.00,Wunderground v.1.15,2013-03-15 18:44:00,
2013-03-16 05:49:00,64.9,63.7,29.94,South,188,0.0,0.0,96,0.00,,,0.00,Wunderground v.1.15,2013-03-15 18:49:00,
2013-03-16 05:54:00,64.7,63.5,29.94,South,189,0.0,0.0,96,0.00,,,0.00,Wunderground v.1.15,2013-03-15 18:54:00,
2013-03-16 05:59:00,64.4,63.2,29.94,South,188,0.0,0.0,96,0.00,,,0.00,Wunderground v.1.15,2013-03-15 18:59:00,
2013-03-16 06:05:00,64.2,63.0,29.94,South,189,0.0,0.0,96,0.00,,,0.00,Wunderground v.1.15,2013-03-15 19:05:00,
2013-03-16 06:10:00,64.1,62.9,29.94,South,188,0.0,0.0,96,0.00,,,0.00,Wunderground v.1.15,2013-03-15 19:10:00,
2013-03-16 06:15:00,63.9,62.7,29.94,South,188,0.0,0.0,96,0.00,,,0.00,Wunderground v.1.15,2013-03-15 19:15:00,
2013-03-16 06:20:00,63.6,62.4,29.94,South,188,0.0,0.0,96,0.00,,,0.00,Wunderground v.1.15,2013-03-15 19:20:00,
2013-03-16 06:25:00,63.4,62.2,29.94,South,188,0.0,0.0,96,0.00,,,0.00,Wunderground v.1.15,2013-03-15 19:25:00,
2013-03-16 06:30:00,63.3,62.1,29.94,South,188,0.0,0.0,96,0.00,,,0.00,Wunderground v.1.15,2013-03-15 19:30:00,
2013-03-16 06:35:00,63.1,61.9,29.94,South,189,0.0,0.0,96,0.00,,,0.00,Wunderground v.1.15,2013-03-15 19:35:00,
2013-03-16 06:40:00,63.3,62.4,29.94,South,188,0.0,0.0,97,0.00,,,0.00,Wunderground v.1.15,2013-03-15 19:40:00,
2013-03-16 06:45:00,63.2,62.0,29.94,South,188,0.0,0.0,96,0.00,,,0.00,Wunderground v.1.15,2013-03-15 19:45:00,
2013-03-16 06:50:00,63.2,62.0,29.94,South,188,0.0,0.0,96,0.00,,,0.00,Wunderground v.1.15,2013-03-15 19:50:00,
2013-03-16 06:55:00,63.2,62.0,29.94,South,189,0.0,0.0,96,0.00,,,0.00,Wunderground v.1.15,2013-03-15 19:55:00,
2013-03-16 07:00:00,63.2,62.0,29.94,South,188,0.0,0.0,96,0.00,,,0.00,Wunderground v.1.15,2013-03-15 20:00:00,
2013-03-16 07:05:00,63.1,61.9,29.94,South,188,0.0,0.0,96,0.00,,,0.00,Wunderground v.1.15,2013-03-15 20:05:00,
2013-03-16 07:10:00,63.0,61.8,29.94,South,188,0.0,0.0,96,0.00,,,0.00,Wunderground v.1.15,2013-03-15 20:10:00,
2013-03-16 07:15:00,63.2,62.3,29.94,South,188,0.0,0.0,97,0.00,,,0.00,Wunderground v.1.15,2013-03-15 20:15:00,
2013-03-16 07:20:00,63.3,62.4,29.94,South,189,0.0,0.0,97,0.00,,,0.00,Wunderground v.1.15,2013-03-15 20:20:00,
2013-03-16 07:25:00,63.7,62.8,29.95,South,189,0.0,0.0,97,0.00,,,0.00,Wunderground v.1.15,2013-03-15 20:25:00,
2013-03-16 07:30:00,63.9,63.0,29.95,South,188,0.0,0.0,97,0.00,,,0.00,Wunderground v.1.15,2013-03-15 20:30:00,
2013-03-16 07:35:00,64.4,63.5,29.95,South,189,0.0,0.0,97,0.00,,,0.00,Wunderground v.1.15,2013-03-15 20:35:00,
2013-03-16 07:40:00,64.8,63.9,29.95,South,188,0.0,0.0,97,0.00,,,0.00,Wunderground v.1.15,2013-03-15 20:40:00,
2013-03-16 07:45:00,65.4,64.5,29.95,South,188,0.0,0.0,97,0.00,,,0.00,Wunderground v.1.15,2013-03-15 20:45:00,
2013-03-16 07:50:00,65.9,65.0,29.95,South,189,0.0,0.0,97,0.00,,,0.00,Wunderground v.1.15,2013-03-15 20:50:00,
2013-03-16 07:55:00,66.0,65.1,29.96,South,189,0.0,0.0,97,0.00,,,0.00,Wunderground v.1.15,2013-03-15 20:55:00,
2013-03-16 08:00:00,66.3,65.1,29.95,South,189,1.0,1.0,96,0.00,,,0.00,Wunderground v.1.15,2013-03-15 21:00:00,
2013-03-16 08:05:00,66.4,65.2,29.95,NNE,25,1.0,1.0,96,0.00,,,0.00,Wunderground v.1.15,2013-03-15 21:05:00,
2013-03-16 08:10:00,66.6,65.4,29.95,NE,37,0.0,1.0,96,0.00,,,0.00,Wunderground v.1.15,2013-03-15 21:10:00,
2013-03-16 08:15:00,66.8,65.6,29.95,NNE,18,0.0,1.0,96,0.00,,,0.00,Wunderground v.1.15,2013-03-15 21:15:00,
2013-03-16 08:20:00,66.9,65.7,29.95,NNE,22,0.0,1.0,96,0.00,,,-99.99,WeatherLink 5.9.3,2013-03-15 21:20:00,
2013-03-16 08:25:00,67.2,65.7,29.96,NNW,336,0.0,1.0,95,0.00,,,0.00,Wunderground v.1.15,2013-03-15 21:25:00,
2013-03-16 08:31:00,67.0,65.5,29.95,NNE,22,0.0,1.0,95,0.00,,,-99.99,WeatherLink 5.9.3,2013-03-15 21:31:00,
2013-03-16 08:36:00,68.0,66.5,29.95,ENE,72,0.0,1.0,95,0.00,,,0.00,Wunderground v.1.15,2013-03-15 21:36:00,
2013-03-16 08:41:00,68.7,66.9,29.95,West,277,0.0,1.0,94,0.00,,,0.00,Wunderground v.1.15,2013-03-15 21:41:00,
2013-03-16 08:46:00,69.2,67.1,29.95,NE,55,0.0,2.0,93,0.00,,,0.00,Wunderground v.1.15,2013-03-15 21:46:00,
2013-03-16 08:51:00,68.7,67.2,29.95,West,270,0.0,1.0,95,0.00,,,-99.99,WeatherLink 5.9.3,2013-03-15 21:51:00,
2013-03-16 08:56:00,70.9,68.5,29.96,NNW,346,0.0,1.0,92,0.00,,,0.00,Wunderground v.1.15,2013-03-15 21:56:00,
2013-03-16 09:01:00,71.6,68.2,29.95,NE,37,1.0,1.0,89,0.00,,,0.00,Wunderground v.1.15,2013-03-15 22:01:00,
2013-03-16 09:06:00,71.9,68.5,29.96,North,4,0.0,2.0,89,0.00,,,0.00,Wunderground v.1.15,2013-03-15 22:06:00,
2013-03-16 09:12:00,71.9,67.8,29.96,NW,325,0.0,1.0,87,0.00,,,0.00,Wunderground v.1.15,2013-03-15 22:12:00,
2013-03-16 09:17:00,72.6,68.2,29.95,North,11,1.0,1.0,86,0.00,,,0.00,Wunderground v.1.15,2013-03-15 22:17:00,
2013-03-16 09:22:00,73.2,68.8,29.95,North,357,0.0,1.0,86,0.00,,,0.00,Wunderground v.1.15,2013-03-15 22:22:00,
2013-03-16 09:27:00,74.2,69.1,29.96,West,278,0.0,1.0,84,0.00,,,0.00,Wunderground v.1.15,2013-03-15 22:27:00,
2013-03-16 09:32:00,74.7,69.2,29.95,ENE,63,1.0,3.0,83,0.00,,,0.00,Wunderground v.1.15,2013-03-15 22:32:00,
2013-03-16 09:37:00,74.7,69.5,29.95,WNW,293,0.0,3.0,84,0.00,,,0.00,Wunderground v.1.15,2013-03-15 22:37:00,
2013-03-16 09:42:00,75.9,69.6,29.95,West,269,1.0,2.0,81,0.00,,,0.00,Wunderground v.1.15,2013-03-15 22:42:00,
2013-03-16 09:48:00,76.2,69.6,29.95,NW,326,0.0,4.0,80,0.00,,,0.00,Wunderground v.1.15,2013-03-15 22:48:00,
2013-03-16 09:53:00,76.4,68.7,29.95,WNW,286,0.0,2.0,77,0.00,,,0.00,Wunderground v.1.15,2013-03-15 22:53:00,
2013-03-16 09:58:00,76.8,68.7,29.95,West,276,1.0,3.0,76,0.00,,,0.00,Wunderground v.1.15,2013-03-15 22:58:00,
2013-03-16 10:03:00,76.9,69.1,29.95,NNE,20,2.0,4.0,77,0.00,,,0.00,Wunderground v.1.15,2013-03-15 23:03:00,
2013-03-16 10:08:00,77.2,68.3,29.95,NNE,23,3.0,4.0,74,0.00,,,0.00,Wunderground v.1.15,2013-03-15 23:08:00,
2013-03-16 10:13:00,77.0,68.5,29.95,WNW,303,1.0,3.0,75,0.00,,,0.00,Wunderground v.1.15,2013-03-15 23:13:00,
2013-03-16 10:18:00,77.6,69.4,29.95,NNW,329,1.0,5.0,76,0.00,,,0.00,Wunderground v.1.15,2013-03-15 23:18:00,
2013-03-16 10:23:00,77.1,67.8,29.95,NNE,26,0.0,6.0,73,0.00,,,0.00,Wunderground v.1.15,2013-03-15 23:23:00,
2013-03-16 10:28:00,76.6,68.1,29.95,WNW,300,0.0,6.0,75,0.00,,,0.00,Wunderground v.1.15,2013-03-15 23:28:00,
2013-03-16 10:33:00,76.1,67.2,29.95,WNW,286,1.0,1.0,74,0.00,,,0.00,Wunderground v.1.15,2013-03-15 23:33:00,
2013-03-16 10:38:00,75.6,67.5,29.95,North,8,0.0,1.0,76,0.00,,,0.00,Wunderground v.1.15,2013-03-15 23:38:00,
2013-03-16 10:43:00,75.4,68.1,29.95,WNW,295,2.0,2.0,78,0.00,,,0.00,Wunderground v.1.15,2013-03-15 23:43:00,
2013-03-16 10:48:00,75.0,67.7,29.95,West,280,0.0,3.0,78,0.00,,,0.00,Wunderground v.1.15,2013-03-15 23:48:00,
2013-03-16 10:53:00,74.8,67.1,29.94,NNE,18,0.0,2.0,77,0.00,,,0.00,Wunderground v.1.15,2013-03-15 23:53:00,
2013-03-16 10:58:00,74.5,66.8,29.94,NNW,347,0.0,3.0,77,0.00,,,0.00,Wunderground v.1.15,2013-03-15 23:58:00,
2013-03-16 11:03:00,74.8,67.5,29.94,NNE,30,3.0,5.0,78,0.00,,,0.00,Wunderground v.1.15,2013-03-16 00:03:00,
2013-03-16 11:08:00,75.4,67.7,29.94,NNW,336,0.0,5.0,77,0.00,,,0.00,Wunderground v.1.15,2013-03-16 00:08:00,
2013-03-16 11:13:00,76.2,67.3,29.93,NE,45,0.0,3.0,74,0.00,,,0.00,Wunderground v.1.15,2013-03-16 00:13:00,
2013-03-16 11:18:00,76.8,67.9,29.93,NNE,24,1.0,4.0,74,0.00,,,0.00,Wunderground v.1.15,2013-03-16 00:18:00,
2013-03-16 11:23:00,77.5,68.9,29.93,NNE,30,4.0,4.0,75,0.00,,,0.00,Wunderground v.1.15,2013-03-16 00:23:00,
2013-03-16 11:28:00,77.6,69.0,29.92,West,274,0.0,4.0,75,0.00,,,0.00,Wunderground v.1.15,2013-03-16 00:28:00,
2013-03-16 11:33:00,77.9,68.1,29.92,NNE,13,3.0,4.0,72,0.00,,,0.00,Wunderground v.1.15,2013-03-16 00:33:00,
2013-03-16 11:38:00,77.7,68.0,29.92,NE,38,2.0,4.0,72,0.00,,,0.00,Wunderground v.1.15,2013-03-16 00:38:00,
2013-03-16 11:43:00,77.9,68.9,29.92,WSW,255,2.0,4.0,74,0.00,,,0.00,Wunderground v.1.15,2013-03-16 00:43:00,
2013-03-16 11:48:00,78.6,68.4,29.91,NNW,333,0.0,4.0,71,0.00,,,0.00,Wunderground v.1.15,2013-03-16 00:48:00,
2013-03-16 11:53:00,78.8,68.2,29.91,NE,48,1.0,3.0,70,0.00,,,0.00,Wunderground v.1.15,2013-03-16 00:53:00,
2013-03-16 11:58:00,78.7,68.9,29.91,North,6,1.0,4.0,72,0.00,,,0.00,Wunderground v.1.15,2013-03-16 00:58:00,
2013-03-16 12:03:00,78.8,68.6,29.91,NNW,336,1.0,4.0,71,0.00,,,0.00,Wunderground v.1.15,2013-03-16 01:03:00,
2013-03-16 12:08:00,79.2,69.0,29.90,NE,34,2.0,4.0,71,0.00,,,0.00,Wunderground v.1.15,2013-03-16 01:08:00,
2013-03-16 12:13:00,79.5,68.9,29.90,North,350,3.0,3.0,70,0.00,,,0.00,Wunderground v.1.15,2013-03-16 01:13:00,
2013-03-16 12:18:00,79.9,69.7,29.90,WNW,302,0.0,4.0,71,0.00,,,0.00,Wunderground v.1.15,2013-03-16 01:18:00,
2013-03-16 12:23:00,80.5,69.4,29.89,North,6,1.0,3.0,69,0.00,,,0.00,Wunderground v.1.15,2013-03-16 01:23:00,
2013-03-16 12:28:00,81.2,70.1,29.89,NNE,32,2.0,4.0,69,0.00,,,0.00,Wunderground v.1.15,2013-03-16 01:28:00,
2013-03-16 12:33:00,81.3,70.6,29.89,West,275,2.0,4.0,70,0.00,,,0.00,Wunderground v.1.15,2013-03-16 01:33:00,
2013-03-16 12:38:00,81.6,69.6,29.88,NE,37,9.0,9.0,67,0.00,,,0.00,Wunderground v.1.15,2013-03-16 01:38:00,
2013-03-16 12:43:00,81.3,69.3,29.88,WNW,293,2.0,3.0,67,0.00,,,0.00,Wunderground v.1.15,2013-03-16 01:43:00,
2013-03-16 12:48:00,81.3,70.2,29.88,NNW,329,0.0,6.0,69,0.00,,,0.00,Wunderground v.1.15,2013-03-16 01:48:00,
2013-03-16 12:53:00,81.7,69.2,29.87,North,7,0.0,2.0,66,0.00,,,0.00,Wunderground v.1.15,2013-03-16 01:53:00,
2013-03-16 12:59:00,82.3,70.2,29.86,WNW,300,2.0,2.0,67,0.00,,,0.00,Wunderground v.1.15,2013-03-16 01:59:00,
2013-03-16 13:04:00,83.0,70.0,29.86,NW,311,2.0,3.0,65,0.00,,,0.00,Wunderground v.1.15,2013-03-16 02:04:00,
2013-03-16 13:09:00,83.0,69.6,29.86,NNE,23,1.0,6.0,64,0.00,,,0.00,Wunderground v.1.15,2013-03-16 02:09:00,
2013-03-16 13:14:00,82.4,69.4,29.86,NNW,339,1.0,6.0,65,0.00,,,0.00,Wunderground v.1.15,2013-03-16 02:14:00,
2013-03-16 13:19:00,82.5,70.0,29.85,North,11,3.0,6.0,66,0.00,,,0.00,Wunderground v.1.15,2013-03-16 02:19:00,
2013-03-16 13:24:00,82.5,70.0,29.85,NW,325,1.0,4.0,66,0.00,,,0.00,Wunderground v.1.15,2013-03-16 02:24:00,
2013-03-16 13:29:00,82.9,69.9,29.84,NW,318,1.0,4.0,65,0.00,,,0.00,Wunderground v.1.15,2013-03-16 02:29:00,
2013-03-16 13:34:00,83.4,69.9,29.84,NNW,340,1.0,3.0,64,0.00,,,0.00,Wunderground v.1.15,2013-03-16 02:34:00,
2013-03-16 13:39:00,83.6,69.2,29.84,North,357,1.0,6.0,62,0.00,,,0.00,Wunderground v.1.15,2013-03-16 02:39:00,
2013-03-16 13:44:00,83.6,69.2,29.83,NNE,23,4.0,4.0,62,0.00,,,0.00,Wunderground v.1.15,2013-03-16 02:44:00,
2013-03-16 13:49:00,83.6,70.1,29.83,North,6,2.0,5.0,64,0.00,,,0.00,Wunderground v.1.15,2013-03-16 02:49:00,
2013-03-16 13:54:00,84.0,69.6,29.83,NNE,27,0.0,2.0,62,0.00,,,0.00,Wunderground v.1.15,2013-03-16 02:54:00,
2013-03-16 13:59:00,84.2,71.2,29.83,NW,324,0.0,5.0,65,0.00,,,0.00,Wunderground v.1.15,2013-03-16 02:59:00,
2013-03-16 14:04:00,84.7,71.2,29.82,NNE,23,4.0,5.0,64,0.00,,,0.00,Wunderground v.1.15,2013-03-16 03:04:00,
2013-03-16 14:09:00,84.5,70.0,29.82,North,11,2.0,6.0,62,0.00,,,0.00,Wunderground v.1.15,2013-03-16 03:09:00,
2013-03-16 14:14:00,84.8,69.9,29.81,NE,37,4.0,4.0,61,0.00,,,0.00,Wunderground v.1.15,2013-03-16 03:14:00,
2013-03-16 14:19:00,84.7,69.8,29.81,NW,321,1.0,8.0,61,0.00,,,0.00,Wunderground v.1.15,2013-03-16 03:19:00,
2013-03-16 14:24:00,84.8,71.3,29.81,NNW,335,1.0,4.0,64,0.00,,,0.00,Wunderground v.1.15,2013-03-16 03:24:00,
2013-03-16 14:29:00,85.3,69.8,29.80,NNE,32,3.0,4.0,60,0.00,,,0.00,Wunderground v.1.15,2013-03-16 03:29:00,
2013-03-16 14:34:00,85.2,69.7,29.80,NNE,24,1.0,5.0,60,0.00,,,0.00,Wunderground v.1.15,2013-03-16 03:34:00,
2013-03-16 14:39:00,85.2,69.3,29.80,NNE,20,0.0,5.0,59,0.00,,,0.00,Wunderground v.1.15,2013-03-16 03:39:00,
2013-03-16 14:44:00,85.5,70.0,29.80,NE,49,2.0,4.0,60,0.00,,,0.00,Wunderground v.1.15,2013-03-16 03:44:00,
2013-03-16 14:49:00,85.3,69.8,29.79,NNE,14,3.0,6.0,60,0.00,,,0.00,Wunderground v.1.15,2013-03-16 03:49:00,
2013-03-16 14:54:00,85.5,69.0,29.79,NNE,20,2.0,4.0,58,0.00,,,0.00,Wunderground v.1.15,2013-03-16 03:54:00,
2013-03-16 14:59:00,85.8,69.8,29.79,NE,37,3.0,5.0,59,0.00,,,0.00,Wunderground v.1.15,2013-03-16 03:59:00,
2013-03-16 15:00:00,85.8,69.8,29.79,NNE,24,2.0,2.0,59,0.00,,,0.00,Wunderground v.1.15,2013-03-16 04:00:00,
2013-03-16 15:01:00,85.8,69.8,29.79,NNE,22,2.0,5.0,59,0.00,,,-99.99,WeatherLink 5.9.3,2013-03-16 04:01:00,
2013-03-16 15:06:00,85.8,70.3,29.79,NW,311,1.0,6.0,60,0.00,,,0.00,Wunderground v.1.15,2013-03-16 04:06:00,
2013-03-16 15:11:00,85.8,69.8,29.79,NNE,22,2.0,6.0,59,0.00,,,-99.99,WeatherLink 5.9.3,2013-03-16 04:11:00,
2013-03-16 15:16:00,87.0,69.9,29.78,NNE,30,1.0,4.0,57,0.00,,,0.00,Wunderground v.1.15,2013-03-16 04:16:00,
2013-03-16 15:21:00,87.3,69.7,29.78,NNE,27,2.0,2.0,56,0.00,,,0.00,Wunderground v.1.15,2013-03-16 04:21:00,
2013-03-16 15:26:00,87.3,69.7,29.77,NNE,17,1.0,4.0,56,0.00,,,0.00,Wunderground v.1.15,2013-03-16 04:26:00,
2013-03-16 15:31:00,87.6,68.9,29.77,NNE,28,2.0,3.0,54,0.00,,,0.00,Wunderground v.1.15,2013-03-16 04:31:00,
2013-03-16 15:37:00,87.6,68.9,29.77,NNE,31,3.0,4.0,54,0.00,,,0.00,Wunderground v.1.15,2013-03-16 04:37:00,
2013-03-16 15:42:00,87.6,69.4,29.77,WNW,283,1.0,2.0,55,0.00,,,0.00,Wunderground v.1.15,2013-03-16 04:42:00,
2013-03-16 15:47:00,87.8,69.6,29.77,NE,41,2.0,2.0,55,0.00,,,0.00,Wunderground v.1.15,2013-03-16 04:47:00,
2013-03-16 15:52:00,87.5,69.3,29.76,NNW,340,1.0,3.0,55,0.00,,,0.00,Wunderground v.1.15,2013-03-16 04:52:00,
2013-03-16 15:57:00,87.8,69.1,29.76,NW,314,1.0,4.0,54,0.00,,,0.00,Wunderground v.1.15,2013-03-16 04:57:00,
2013-03-16 16:02:00,88.3,70.6,29.76,NW,326,1.0,2.0,56,0.00,,,0.00,Wunderground v.1.15,2013-03-16 05:02:00,
2013-03-16 16:07:00,88.7,68.8,29.76,WNW,283,1.0,2.0,52,0.00,,,0.00,Wunderground v.1.15,2013-03-16 05:07:00,
2013-03-16 16:12:00,88.7,69.9,29.76,West,280,1.0,3.0,54,0.00,,,0.00,Wunderground v.1.15,2013-03-16 05:12:00,
2013-03-16 16:17:00,89.0,69.1,29.76,NNW,339,0.0,3.0,52,0.00,,,0.00,Wunderground v.1.15,2013-03-16 05:17:00,
2013-03-16 16:22:00,89.4,70.0,29.76,WNW,284,1.0,6.0,53,0.00,,,0.00,Wunderground v.1.15,2013-03-16 05:22:00,
2013-03-16 16:27:00,89.6,69.6,29.76,WNW,286,1.0,6.0,52,0.00,,,0.00,Wunderground v.1.15,2013-03-16 05:27:00,
2013-03-16 16:32:00,89.9,69.3,29.75,NE,39,1.0,2.0,51,0.00,,,0.00,Wunderground v.1.15,2013-03-16 05:32:00,
2013-03-16 16:37:00,90.0,69.4,29.75,NW,319,3.0,3.0,51,0.00,,,0.00,Wunderground v.1.15,2013-03-16 05:37:00,
2013-03-16 16:42:00,89.5,69.5,29.75,West,273,0.0,3.0,52,0.00,,,0.00,Wunderground v.1.15,2013-03-16 05:42:00,
2013-03-16 16:47:00,89.8,68.1,29.75,SW,236,0.0,3.0,49,0.00,,,0.00,Wunderground v.1.15,2013-03-16 05:47:00,
2013-03-16 16:52:00,89.9,68.2,29.75,NNW,338,0.0,6.0,49,0.00,,,0.00,Wunderground v.1.15,2013-03-16 05:52:00,
2013-03-16 16:57:00,89.5,68.4,29.74,NNE,13,0.0,6.0,50,0.00,,,0.00,Wunderground v.1.15,2013-03-16 05:57:00,
2013-03-16 17:02:00,89.8,68.7,29.74,WNW,297,1.0,1.0,50,0.00,,,0.00,Wunderground v.1.15,2013-03-16 06:02:00,
2013-03-16 17:07:00,90.2,69.0,29.74,WNW,300,0.0,2.0,50,0.00,,,0.00,Wunderground v.1.15,2013-03-16 06:07:00,
2013-03-16 17:12:00,90.2,68.5,29.74,NNE,24,2.0,3.0,49,0.00,,,0.00,Wunderground v.1.15,2013-03-16 06:12:00,
2013-03-16 17:17:00,89.8,68.7,29.74,West,271,3.0,3.0,50,0.00,,,0.00,Wunderground v.1.15,2013-03-16 06:17:00,
2013-03-16 17:22:00,89.5,67.8,29.74,NNE,28,2.0,4.0,49,0.00,,,0.00,Wunderground v.1.15,2013-03-16 06:22:00,
2013-03-16 17:27:00,89.2,68.1,29.74,NE,39,1.0,4.0,50,0.00,,,0.00,Wunderground v.1.15,2013-03-16 06:27:00,
2013-03-16 17:32:00,89.5,67.8,29.74,NNW,338,0.0,2.0,49,0.00,,,0.00,Wunderground v.1.15,2013-03-16 06:32:00,
2013-03-16 17:38:00,89.7,67.4,29.74,NNW,343,0.0,2.0,48,0.00,,,0.00,Wunderground v.1.15,2013-03-16 06:38:00,
2013-03-16 17:43:00,89.9,68.8,29.74,NNE,14,1.0,1.0,50,0.00,,,0.00,Wunderground v.1.15,2013-03-16 06:43:00,
2013-03-16 17:48:00,89.9,68.2,29.74,North,355,1.0,2.0,49,0.00,,,0.00,Wunderground v.1.15,2013-03-16 06:48:00,
2013-03-16 17:53:00,89.7,68.0,29.73,West,266,0.0,1.0,49,0.00,,,0.00,Wunderground v.1.15,2013-03-16 06:53:00,
2013-03-16 17:58:00,89.2,68.7,29.73,NNE,32,1.0,3.0,51,0.00,,,0.00,Wunderground v.1.15,2013-03-16 06:58:00,
2013-03-16 18:03:00,88.8,67.8,29.73,NNE,26,1.0,2.0,50,0.00,,,0.00,Wunderground v.1.15,2013-03-16 07:03:00,
2013-03-16 18:08:00,88.6,68.7,29.73,ENE,58,1.0,2.0,52,0.00,,,0.00,Wunderground v.1.15,2013-03-16 07:08:00,
2013-03-16 18:13:00,87.7,68.4,29.73,NNE,28,1.0,2.0,53,0.00,,,0.00,Wunderground v.1.15,2013-03-16 07:13:00,
2013-03-16 18:18:00,87.1,67.9,29.74,East,80,1.0,3.0,53,0.00,,,0.00,Wunderground v.1.15,2013-03-16 07:18:00,
2013-03-16 18:23:00,86.4,68.3,29.74,NE,35,0.0,1.0,55,0.00,,,0.00,Wunderground v.1.15,2013-03-16 07:23:00,
2013-03-16 18:28:00,85.8,68.3,29.73,NE,35,0.0,1.0,56,0.00,,,0.00,Wunderground v.1.15,2013-03-16 07:28:00,
2013-03-16 18:33:00,85.1,69.2,29.73,NE,35,0.0,1.0,59,0.00,,,0.00,Wunderground v.1.15,2013-03-16 07:33:00,
2013-03-16 18:38:00,84.4,69.0,29.74,NE,35,0.0,1.0,60,0.00,,,0.00,Wunderground v.1.15,2013-03-16 07:38:00,
2013-03-16 18:43:00,83.7,68.8,29.74,NE,35,0.0,1.0,61,0.00,,,0.00,Wunderground v.1.15,2013-03-16 07:43:00,
2013-03-16 18:48:00,83.2,68.8,29.74,ENE,63,1.0,1.0,62,0.00,,,0.00,Wunderground v.1.15,2013-03-16 07:48:00,
2013-03-16 18:53:00,82.5,69.5,29.74,East,87,5.0,10.0,65,0.00,,,0.00,Wunderground v.1.15,2013-03-16 07:53:00,
2013-03-16 18:59:00,80.5,69.8,29.74,East,80,2.0,10.0,70,0.00,,,0.00,Wunderground v.1.15,2013-03-16 07:59:00,
2013-03-16 19:05:00,79.3,69.9,29.74,ENE,62,3.0,9.0,73,0.00,,,0.00,Wunderground v.1.15,2013-03-16 08:05:00,
2013-03-16 19:10:00,80.2,69.9,29.74,NE,45,3.0,7.0,71,0.00,,,-99.99,WeatherLink 5.9.3,2013-03-16 08:10:00,
2013-03-16 19:16:00,77.8,69.6,29.74,ENE,75,4.0,4.0,76,0.00,,,0.00,Wunderground v.1.15,2013-03-16 08:16:00,
2013-03-16 19:21:00,78.4,69.8,29.74,ENE,67,3.0,6.0,75,0.00,,,-99.99,WeatherLink 5.9.3,2013-03-16 08:21:00,
2013-03-16 19:27:00,76.8,69.4,29.74,NE,46,4.0,4.0,78,0.00,,,0.00,Wunderground v.1.15,2013-03-16 08:27:00,
2013-03-16 19:32:00,76.3,69.3,29.74,ENE,68,2.0,7.0,79,0.00,,,0.00,Wunderground v.1.15,2013-03-16 08:32:00,
2013-03-16 19:37:00,76.0,69.0,29.74,NE,48,2.0,7.0,79,0.00,,,0.00,Wunderground v.1.15,2013-03-16 08:37:00,
2013-03-16 19:42:00,75.7,69.1,29.74,NE,42,3.0,6.0,80,0.00,,,0.00,Wunderground v.1.15,2013-03-16 08:42:00,
2013-03-16 19:47:00,75.5,68.9,29.74,SE,134,2.0,6.0,80,0.00,,,0.00,Wunderground v.1.15,2013-03-16 08:47:00,
2013-03-16 19:52:00,75.2,68.6,29.74,ESE,110,1.0,4.0,80,0.00,,,0.00,Wunderground v.1.15,2013-03-16 08:52:00,
2013-03-16 19:57:00,75.0,68.4,29.74,East,96,1.0,6.0,80,0.00,,,0.00,Wunderground v.1.15,2013-03-16 08:57:00,
2013-03-16 20:02:00,74.9,68.7,29.75,ENE,75,4.0,4.0,81,0.00,,,0.00,Wunderground v.1.15,2013-03-16 09:02:00,
2013-03-16 20:07:00,74.7,68.5,29.75,East,82,0.0,5.0,81,0.00,,,0.00,Wunderground v.1.15,2013-03-16 09:07:00,
2013-03-16 20:12:00,74.6,68.4,29.75,NNE,12,0.0,2.0,81,0.00,,,0.00,Wunderground v.1.15,2013-03-16 09:12:00,
2013-03-16 20:17:00,74.4,68.2,29.75,SE,131,0.0,3.0,81,0.00,,,0.00,Wunderground v.1.15,2013-03-16 09:17:00,
2013-03-16 20:22:00,74.3,68.1,29.75,South,172,1.0,1.0,81,0.00,,,0.00,Wunderground v.1.15,2013-03-16 09:22:00,
2013-03-16 20:27:00,74.2,68.0,29.75,SW,224,0.0,2.0,81,0.00,,,0.00,Wunderground v.1.15,2013-03-16 09:27:00,
2013-03-16 20:32:00,74.1,67.9,29.75,NNE,31,0.0,1.0,81,0.00,,,0.00,Wunderground v.1.15,2013-03-16 09:32:00,
2013-03-16 20:37:00,74.1,67.9,29.75,ENE,68,2.0,3.0,81,0.00,,,0.00,Wunderground v.1.15,2013-03-16 09:37:00,
2013-03-16 20:42:00,74.0,67.8,29.76,SSW,210,1.0,1.0,81,0.00,,,0.00,Wunderground v.1.15,2013-03-16 09:42:00,
2013-03-16 20:47:00,73.9,68.1,29.76,SSW,193,0.0,1.0,82,0.00,,,0.00,Wunderground v.1.15,2013-03-16 09:47:00,
2013-03-16 20:52:00,73.8,68.0,29.76,South,181,0.0,0.0,82,0.00,,,0.00,Wunderground v.1.15,2013-03-16 09:52:00,
2013-03-16 20:57:00,73.7,67.9,29.76,South,181,0.0,1.0,82,0.00,,,0.00,Wunderground v.1.15,2013-03-16 09:57:00,
2013-03-16 21:02:00,73.5,68.0,29.76,South,188,0.0,1.0,83,0.00,,,0.00,Wunderground v.1.15,2013-03-16 10:02:00,
2013-03-16 21:07:00,73.5,68.0,29.76,South,188,0.0,1.0,83,0.00,,,0.00,Wunderground v.1.15,2013-03-16 10:07:00,
2013-03-16 21:12:00,73.5,68.0,29.76,South,185,0.0,1.0,83,0.00,,,0.00,Wunderground v.1.15,2013-03-16 10:12:00,
2013-03-16 21:17:00,73.6,68.5,29.76,South,185,0.0,1.0,84,0.00,,,0.00,Wunderground v.1.15,2013-03-16 10:17:00,
2013-03-16 21:22:00,73.5,68.4,29.76,South,185,0.0,0.0,84,0.00,,,0.00,Wunderground v.1.15,2013-03-16 10:22:00,
2013-03-16 21:27:00,73.3,68.2,29.76,South,185,0.0,0.0,84,0.00,,,0.00,Wunderground v.1.15,2013-03-16 10:27:00,
2013-03-16 21:32:00,73.2,68.4,29.76,South,184,0.0,0.0,85,0.00,,,0.00,Wunderground v.1.15,2013-03-16 10:32:00,
2013-03-16 21:37:00,73.1,68.3,29.76,South,185,0.0,0.0,85,0.00,,,0.00,Wunderground v.1.15,2013-03-16 10:37:00,
2013-03-16 21:43:00,72.9,68.5,29.76,South,185,0.0,0.0,86,0.00,,,0.00,Wunderground v.1.15,2013-03-16 10:43:00,
2013-03-16 21:48:00,72.8,68.4,29.76,South,185,0.0,0.0,86,0.00,,,0.00,Wunderground v.1.15,2013-03-16 10:48:00,
2013-03-16 21:53:00,72.7,68.3,29.77,South,184,0.0,1.0,86,0.00,,,0.00,Wunderground v.1.15,2013-03-16 10:53:00,
2013-03-16 21:58:00,72.6,68.2,29.77,SW,226,0.0,1.0,86,0.00,,,0.00,Wunderground v.1.15,2013-03-16 10:58:00,
2013-03-16 22:03:00,72.5,68.1,29.77,SW,227,0.0,0.0,86,0.00,,,0.00,Wunderground v.1.15,2013-03-16 11:03:00,
2013-03-16 22:08:00,72.4,68.3,29.77,SW,225,0.0,1.0,87,0.00,,,0.00,Wunderground v.1.15,2013-03-16 11:08:00,
2013-03-16 22:13:00,72.4,68.3,29.77,SW,227,0.0,0.0,87,0.00,,,0.00,Wunderground v.1.15,2013-03-16 11:13:00,
2013-03-16 22:18:00,72.2,68.1,29.77,WSW,255,0.0,1.0,87,0.00,,,0.00,Wunderground v.1.15,2013-03-16 11:18:00,
2013-03-16 22:23:00,72.3,67.9,29.77,WNW,290,0.0,1.0,86,0.00,,,0.00,Wunderground v.1.15,2013-03-16 11:23:00,
2013-03-16 22:28:00,72.2,68.1,29.77,WNW,290,0.0,1.0,87,0.00,,,0.00,Wunderground v.1.15,2013-03-16 11:28:00,
2013-03-16 22:33:00,72.2,68.1,29.77,WNW,290,0.0,0.0,87,0.00,,,0.00,Wunderground v.1.15,2013-03-16 11:33:00,
2013-03-16 22:38:00,72.1,68.0,29.77,WNW,290,0.0,0.0,87,0.00,,,0.00,Wunderground v.1.15,2013-03-16 11:38:00,
2013-03-16 22:43:00,71.9,68.2,29.76,WNW,290,0.0,1.0,88,0.00,,,0.00,Wunderground v.1.15,2013-03-16 11:43:00,
2013-03-16 22:48:00,71.8,67.7,29.76,WNW,290,0.0,1.0,87,0.00,,,0.00,Wunderground v.1.15,2013-03-16 11:48:00,
2013-03-16 22:53:00,71.6,67.9,29.76,WNW,290,0.0,0.0,88,0.00,,,0.00,Wunderground v.1.15,2013-03-16 11:53:00,
2013-03-16 22:58:00,71.5,68.1,29.76,WNW,290,0.0,1.0,89,0.00,,,0.00,Wunderground v.1.15,2013-03-16 11:58:00,
2013-03-16 23:03:00,71.4,68.0,29.76,WNW,290,0.0,1.0,89,0.00,,,0.00,Wunderground v.1.15,2013-03-16 12:03:00,
2013-03-16 23:08:00,71.3,67.9,29.76,WNW,290,0.0,1.0,89,0.00,,,0.00,Wunderground v.1.15,2013-03-16 12:08:00,
2013-03-16 23:13:00,71.1,67.7,29.76,WNW,290,0.0,0.0,89,0.00,,,0.00,Wunderground v.1.15,2013-03-16 12:13:00,
2013-03-16 23:18:00,71.0,67.9,29.76,WNW,290,0.0,0.0,90,0.00,,,0.00,Wunderground v.1.15,2013-03-16 12:18:00,
2013-03-16 23:23:00,70.9,67.8,29.76,SW,229,0.0,0.0,90,0.00,,,0.00,Wunderground v.1.15,2013-03-16 12:23:00,
2013-03-16 23:28:00,70.7,67.6,29.76,SW,229,0.0,0.0,90,0.00,,,0.00,Wunderground v.1.15,2013-03-16 12:28:00,
2013-03-16 23:34:00,70.7,67.9,29.75,SSE,154,0.0,1.0,91,0.00,,,0.00,Wunderground v.1.15,2013-03-16 12:34:00,
2013-03-16 23:39:00,70.7,67.9,29.76,SSE,156,0.0,1.0,91,0.00,,,0.00,Wunderground v.1.15,2013-03-16 12:39:00,
2013-03-16 23:44:00,70.5,67.7,29.76,SSE,154,0.0,0.0,91,0.00,,,0.00,Wunderground v.1.15,2013-03-16 12:44:00,
2013-03-16 23:49:00,70.5,67.7,29.76,SSE,154,0.0,1.0,91,0.00,,,0.00,Wunderground v.1.15,2013-03-16 12:49:00,
2013-03-16 23:54:00,70.6,67.8,29.76,SSE,155,0.0,0.0,91,0.00,,,0.00,Wunderground v.1.15,2013-03-16 12:54:00,
2013-03-16 23:59:00,70.7,67.9,29.76,SSE,154,0.0,0.0,91,0.00,,,0.00,Wunderground v.1.15,2013-03-16 12:59:00,